Time;durP1;ratioP1;P1;durP2;ratioP2;P2;SDS_P1;SDS_P2;PMS_P1;PMS_P2;Temp;Humidity;BMP_temperature;BMP_pressure;BME280_temperature;BME280_humidity;BME280_pressure;Samples;Min_cycle;Max_cycle;Signal;HPM_P1;HPM_P2
2022/07/23 00:08:37;;;;;;;14.88;10.38;;;;;;;22.64;53.05;100217.19;30747319;28;97317;-68
2022/07/23 00:23:37;;;;;;;12.15;8.63;;;;;;;22.19;53.88;100215.41;30744435;28;97760;-66
2022/07/23 00:38:37;;;;;;;11.73;8.67;;;;;;;21.72;54.89;100223.81;30744545;28;96717;-65
2022/07/23 00:53:38;;;;;;;12.27;7.93;;;;;;;21.35;56.04;100226.88;30743186;28;97634;-64
2022/07/23 01:08:38;;;;;;;11.03;7.67;;;;;;;21.40;56.79;100232.41;30742093;28;96632;-65
2022/07/23 01:23:40;;;;;;;8.93;7.67;;;;;;;21.52;56.78;100227.78;30740266;28;96666;-64
2022/07/23 01:38:40;;;;;;;13.33;9.10;;;;;;;21.12;56.86;100224.00;30738674;28;96742;-66
2022/07/23 01:53:40;;;;;;;11.17;8.77;;;;;;;20.69;57.96;100230.66;30737418;28;96763;-68
2022/07/23 02:08:41;;;;;;;9.10;8.18;;;;;;;20.26;58.99;100193.94;30736372;28;96747;-65
2022/07/23 02:23:41;;;;;;;11.63;8.40;;;;;;;20.10;59.94;100200.84;30734976;28;98023;-64
2022/07/23 02:38:41;;;;;;;13.60;8.48;;;;;;;19.99;60.71;100188.16;30733699;28;97229;-70
2022/07/23 02:53:42;;;;;;;18.60;8.95;;;;;;;19.94;61.20;100175.31;30745511;28;96764;-70
2022/07/23 03:08:42;;;;;;;15.13;9.20;;;;;;;19.92;61.67;100180.97;30752437;28;110223;-68
2022/07/23 03:23:43;;;;;;;15.85;8.70;;;;;;;19.91;62.07;100190.13;30751338;28;96770;-64
2022/07/23 03:38:43;;;;;;;10.57;8.50;;;;;;;20.01;62.05;100191.44;30749847;28;96654;-64
2022/07/23 03:53:43;;;;;;;12.73;9.63;;;;;;;20.16;62.05;100199.94;30747759;28;97310;-65
2022/07/23 04:08:44;;;;;;;12.52;9.50;;;;;;;20.43;61.75;100199.47;30746624;28;96678;-64
2022/07/23 04:23:44;;;;;;;11.15;9.25;;;;;;;20.88;61.10;100182.63;30745495;28;97339;-66
2022/07/23 04:38:44;;;;;;;10.52;8.63;;;;;;;21.33;60.24;100156.69;30743614;28;96713;-64
2022/07/23 04:53:45;;;;;;;11.10;9.70;;;;;;;21.82;59.24;100145.38;30741781;28;96816;-70
2022/07/23 05:08:45;;;;;;;10.77;8.70;;;;;;;22.17;58.14;100125.31;30741212;28;96818;-65
2022/07/23 05:23:46;;;;;;;12.10;10.40;;;;;;;22.41;57.53;100098.00;30739577;28;96761;-64
2022/07/23 05:38:46;;;;;;;11.30;8.20;;;;;;;22.63;57.42;100079.78;30737665;28;96785;-66
2022/07/23 05:53:47;;;;;;;9.50;8.03;;;;;;;22.81;57.64;100072.41;30735439;28;96765;-64
2022/07/23 06:08:47;;;;;;;9.63;8.00;;;;;;;23.32;56.27;100081.09;30735606;28;97300;-67
2022/07/23 06:23:47;;;;;;;9.20;7.50;;;;;;;23.71;54.55;100104.53;30731794;28;96710;-64
2022/07/23 06:38:48;;;;;;;11.15;7.78;;;;;;;24.24;53.52;100082.09;30731612;28;96838;-64
2022/07/23 06:53:49;;;;;;;;;;;;;;;24.96;52.10;100058.69;30730360;28;96784;-65
2022/07/23 07:08:49;;;;;;;11.60;7.78;;;;;;;25.84;50.45;100050.53;30730250;28;97309;-64
2022/07/23 07:23:50;;;;;;;9.63;7.20;;;;;;;26.56;48.92;100055.81;30729173;28;96787;-65
2022/07/23 07:38:50;;;;;;;11.60;7.82;;;;;;;27.33;46.74;100038.94;30739058;28;101563;-65
2022/07/23 07:53:50;;;;;;;13.13;8.35;;;;;;;27.23;45.30;100040.91;30747621;28;96949;-65
2022/07/23 08:08:50;;;;;;;11.27;8.20;;;;;;;27.68;44.88;100020.59;30743262;28;104739;-64
2022/07/23 08:23:51;;;;;;;9.68;8.57;;;;;;;28.03;43.50;100026.84;30742237;28;96967;-67
2022/07/23 08:38:51;;;;;;;11.80;9.02;;;;;;;28.74;41.74;100023.47;30741947;28;97100;-66
2022/07/23 08:53:52;;;;;;;13.93;9.23;;;;;;;29.21;40.89;100009.88;30740015;28;97008;-68
2022/07/23 09:08:53;;;;;;;14.30;8.70;;;;;;;29.70;39.98;100014.00;30733899;28;97054;-67
2022/07/23 09:24:05;;;;;;;9.18;8.27;;;;;;;30.83;37.90;100001.81;30727970;28;97410;-67
2022/07/23 09:39:06;;;;;;;11.40;7.70;;;;;;;30.49;37.96;99986.63;30733568;28;97417;-70
2022/07/23 09:54:21;;;;;;;10.30;7.47;;;;;;;31.10;37.42;100008.34;30734919;28;96859;-69
2022/07/23 10:09:27;;;;;;;13.37;8.07;;;;;;;31.43;36.55;100041.91;30737242;28;96926;-65
2022/07/23 10:24:30;;;;;;;10.60;7.43;;;;;;;30.70;38.58;100042.78;30734457;28;96574;-66
2022/07/23 10:39:33;;;;;;;7.63;6.20;;;;;;;29.69;40.09;100055.47;30729617;28;96736;-65
2022/07/23 10:54:34;;;;;;;10.87;6.83;;;;;;;28.43;42.97;100095.13;30721345;28;97135;-64
2022/07/23 11:09:42;;;;;;;12.57;8.75;;;;;;;25.98;49.42;100129.91;30726151;28;96785;-65
2022/07/23 11:24:51;;;;;;;13.07;9.60;;;;;;;24.09;56.23;100108.09;30740727;28;97549;-63
2022/07/23 11:39:55;;;;;;;11.67;9.50;;;;;;;24.25;59.66;100049.16;30738912;28;97710;-71
2022/07/23 11:55:01;;;;;;;11.37;9.27;;;;;;;23.85;61.40;100042.34;30738943;28;97399;-70
2022/07/23 12:10:23;;;;;;;10.30;8.40;;;;;;;24.60;62.73;100027.78;30740712;28;97718;-65
2022/07/23 12:25:27;;;;;;;11.10;9.63;;;;;;;25.48;61.14;100042.41;30738521;28;97368;-65
2022/07/23 12:40:34;;;;;;;9.43;8.13;;;;;;;26.97;57.64;100039.19;30739690;28;97002;-64
2022/07/23 12:55:36;;;;;;;10.93;7.30;;;;;;;28.72;54.62;100019.41;30731273;28;97290;-66
2022/07/23 13:10:36;;;;;;;9.03;7.70;;;;;;;30.12;49.71;100029.69;30730763;28;98002;-71
2022/07/23 13:25:37;;;;;;;8.98;7.30;;;;;;;31.21;47.36;100040.78;30744438;28;98388;-72
2022/07/23 13:40:40;;;;;;;9.75;7.85;;;;;;;31.58;45.01;100032.44;30730465;28;97964;-64
2022/07/23 13:55:41;;;;;;;9.10;8.17;;;;;;;32.08;43.28;100025.88;30731121;28;96735;-64
2022/07/23 14:10:42;;;;;;;10.00;7.87;;;;;;;33.02;38.55;100022.78;30735189;28;96864;-71
2022/07/23 14:25:43;;;;;;;10.50;8.57;;;;;;;32.22;39.08;100023.03;30733683;28;97452;-64
2022/07/23 14:40:44;;;;;;;10.68;8.07;;;;;;;31.64;40.46;100030.41;30731464;28;96755;-64
2022/07/23 14:55:44;;;;;;;25.75;21.08;;;;;;;30.64;42.26;100030.25;30731037;28;96978;-64
2022/07/23 15:10:45;;;;;;;10.30;9.07;;;;;;;29.50;43.94;100030.84;30730452;28;96813;-68
2022/07/23 15:25:45;;;;;;;9.48;8.57;;;;;;;28.90;45.43;100028.72;30729751;28;96844;-66
2022/07/23 15:40:46;;;;;;;9.65;8.48;;;;;;;28.94;46.19;100060.75;30776496;28;97078;-64
2022/07/23 15:55:47;;;;;;;10.18;8.90;;;;;;;28.59;46.69;100082.03;30796068;28;96978;-64
2022/07/23 16:10:47;;;;;;;10.27;9.05;;;;;;;28.04;47.25;100093.34;30774908;28;97632;-64
2022/07/23 16:25:48;;;;;;;11.95;9.20;;;;;;;27.83;47.98;100081.75;30856039;28;96708;-65
2022/07/23 16:40:49;;;;;;;13.07;9.45;;;;;;;27.81;47.16;100092.16;30755662;28;97943;-72
2022/07/23 16:55:50;;;;;;;8.95;8.10;;;;;;;27.99;47.59;100085.16;30731450;28;97238;-64
2022/07/23 17:10:52;;;;;;;9.40;8.33;;;;;;;28.23;47.25;100095.31;30736850;28;97339;-71
2022/07/23 17:25:52;;;;;;;11.10;7.80;;;;;;;27.91;46.87;100116.69;30740055;28;97408;-65
2022/07/23 17:40:53;;;;;;;7.82;6.78;;;;;;;27.14;48.11;100136.41;30738141;28;97137;-66
2022/07/23 17:55:54;;;;;;;7.75;6.88;;;;;;;26.16;49.55;100148.50;30735184;28;97568;-68
2022/07/23 18:10:54;;;;;;;6.93;5.83;;;;;;;25.40;51.26;100165.66;30730612;28;97427;-65
2022/07/23 18:25:55;;;;;;;6.80;6.10;;;;;;;24.66;53.11;100193.69;30733273;28;96769;-69
2022/07/23 18:40:57;;;;;;;8.00;6.20;;;;;;;23.99;54.78;100230.50;30732496;28;97522;-70
2022/07/23 18:55:58;;;;;;;10.50;6.50;;;;;;;23.46;56.77;100255.47;30731969;28;96857;-64
2022/07/23 19:10:58;;;;;;;;;;;;;;;23.07;58.01;100268.28;30731117;28;97469;-70
2022/07/23 19:25:59;;;;;;;9.30;6.88;;;;;;;22.58;59.23;100290.66;30730681;28;96736;-64
2022/07/23 19:40:59;;;;;;;7.85;6.65;;;;;;;22.22;60.11;100300.91;30748152;28;96654;-64
2022/07/23 19:56:00;;;;;;;8.43;6.97;;;;;;;21.97;60.87;100315.66;30746976;28;97256;-70
2022/07/23 20:11:00;;;;;;;9.75;7.95;;;;;;;21.71;61.73;100327.91;30745013;28;97533;-66
2022/07/23 20:26:01;;;;;;;9.70;8.15;;;;;;;21.47;62.22;100344.19;30743884;28;97424;-65
2022/07/23 20:41:02;;;;;;;8.93;6.97;;;;;;;21.26;62.85;100362.72;30743749;28;96792;-65
2022/07/23 20:56:03;;;;;;;9.10;7.28;;;;;;;21.08;63.01;100362.88;30742643;28;97142;-64
2022/07/23 21:11:03;;;;;;;9.27;7.43;;;;;;;20.78;63.46;100374.63;30741086;28;96790;-71
2022/07/23 21:26:04;;;;;;;8.80;7.43;;;;;;;20.53;64.08;100382.88;30740083;28;96776;-68
2022/07/23 21:41:05;;;;;;;8.77;7.27;;;;;;;20.37;64.67;100400.63;30738161;28;96670;-64
2022/07/23 21:56:06;;;;;;;11.90;7.33;;;;;;;20.14;64.84;100402.16;30737339;28;96829;-64
2022/07/23 22:11:06;;;;;;;8.27;6.72;;;;;;;19.92;65.54;100409.94;30736511;28;97728;-65
2022/07/23 22:26:07;;;;;;;9.02;7.35;;;;;;;19.66;66.05;100406.47;30734980;28;97500;-64
2022/07/23 22:41:07;;;;;;;9.20;6.95;;;;;;;19.51;67.55;100404.13;30732825;28;97442;-67
2022/07/23 22:56:08;;;;;;;10.77;7.95;;;;;;;20.44;66.31;100414.88;30731588;28;97161;-64
2022/07/23 23:11:08;;;;;;;8.93;6.75;;;;;;;20.57;65.13;100425.50;30745039;28;97390;-68
2022/07/23 23:26:10;;;;;;;7.25;5.78;;;;;;;20.43;64.34;100443.78;30749907;28;97027;-66
2022/07/23 23:41:11;;;;;;;6.97;5.50;;;;;;;19.90;64.90;100453.44;30745618;28;97395;-65
2022/07/23 23:56:11;;;;;;;8.80;6.07;;;;;;;19.41;64.76;100464.09;30748577;28;96709;-64
